KBHM/BHM METAR and TAF weather

Enter ICAO airport designator
Station Type Date Time Source
KBHM METAR 2020/11/28 18:53 UTC NOAA

KBHM 281853Z 33009KT 10SM FEW050 BKN070 BKN250 16/09 A3013 RMK AO2 SLP201 T01610089 $


Station Type Date Time Source
KBHM Decoded METAR 2020/11/28 18:53 UTC NOAA

BIRMINGHAM INT'L AIRPORT, AL, United States (KBHM) 33-34N 086-45W 197M
Nov 28, 2020 - 01:53 PM EST / 2020.11.28 1853 UTC
Wind: from the NNW (330 degrees) at 10 MPH (9 KT):0
Visibility: 10 mile(s):0
Sky conditions: mostly cloudy
Temperature: 61.0 F (16.1 C)
Dew Point: 48.0 F (8.9 C)
Relative Humidity: 62%
Pressure (altimeter): 30.13 in. Hg (1020 hPa)
ob: KBHM 281853Z 33009KT 10SM FEW050 BKN070 BKN250 16/09 A3013 RMK AO2 SLP201 T01610089
cycle: 19

Station Type Date Time Source
KBHM TAF 2020/11/28 18:22 UTC NOAA

TAF KBHM 281720Z 2818/2918 01008KT P6SM SCT050 OVC250
FM290100 VRB03KT P6SM BKN040 OVC200
FM291500 13007KT P6SM OVC030

Example: see airport list